Aviation Digital Data Service (ADDS)

Output produced by METARs form (1748 UTC 25 July 2016)
found at http://www.aviationweather.gov/adds/metars/
 
KCRQ 251653Z AUTO 25004KT 7SM CLR 24/20 A2997 RMK AO2 SLP144 T02390200
KCRQ 251553Z AUTO 00000KT 6SM HZ SCT011 23/19 A2997 RMK AO2 SLP145 T02280194
KCRQ 251520Z AUTO 25005KT 6SM HZ BKN011 22/19 A2997 RMK AO2 T02220194
KCRQ 251453Z AUTO 00000KT 6SM HZ SCT010 22/19 A2997 RMK AO2 SLP144 T02220194 53020 $
KCRQ 251433Z AUTO 17004KT 6SM BR BKN010 22/20 A2996 RMK AO2 T02220200 $
KCRQ 251353Z AUTO 00000KT 6SM BR OVC008 22/20 A2994 RMK AO2 SLP135 T02170200 $
KCRQ 251720Z 2518/2618 VRB04KT P6SM FEW010 BKN150 
     FM251900 25008KT P6SM SCT070 BKN150 
     FM260100 VRB04KT P6SM SCT200 
     FM260500 VRB04KT P6SM OVC008 
     FM261600 VRB05KT P6SM FEW010